< < Back
Terminal Aerodrome Forecast


Current Version              Previous Versions:   1  2  3  4  5  6  7  8  9  

Terminal Aerodrome Forecast

864
FTUS44 KMRX 291132
TAFTYS
TAF
KTYS 291132Z 2912/3012 VRB03KT P6SM SCT040 BKN250
     FM291400 26004KT P6SM BKN040 OVC120
     FM291900 23007KT P6SM VCTS SCT035CB OVC100
     FM300000 21005KT P6SM SCT040 BKN250
     FM300600 VRB03KT P6SM BKN250=



Latest METAR

771
SAUS80 KWBC 291400
MTRTYS
METAR KTYS 291353Z 11003KT 10SM FEW021 FEW055 SCT180 SCT250 23/19 A3022
RMK AO2 SLP224 T02330189


USA.gov is the U.S. government's official web portal to all federal, state and local government web resources and services.